Paraiso, Brazil
Current Conditions -  °F | °C
As of 12:00 AM on Monday 22 Dec 2014 (Local Time) from SBCH Reporting Station
Light Fog Light Fog  
Wind Chill: 66°   Ceiling: 200
Heat Index: 66°   Visibility: 6mi
Dew Point: 66°   Wind: 0mph
Humidity: 100%   Direction: NA
Pressure: 29.8"   Gusts: NA
Location:  26.6°S, 53.65°W
Report Text: SBCH 220200Z 00000KT 9999 BCFG BKN002 BKN040 BKN100 19/19 Q1009
Loading
Personal Weather Stations






























Interactive Weather Map New forecast layout! Learn more

10-Day Weather Forecast

Advertisements
Track Severe Weather on mobile